Timeline UpdatesTrip UpdatesNews PostsPvt PostsTravel TipsAdmin PostsConv PostsFollowed PostsChat RequestsBlog PostsPNR Posts

Disclaimer
Search
 
 
Tue Sep 2, 2014 12:17:55 ISTHomeTrainsΣChainsAtlasPNRForumGalleryNewsFAQTripsMembersLoginFeedback
No Recent News for this Train
Other Trains in the News **new
Latest...
Temporary Stop at Vindhyachal (BDL) for 2 min from 31/3/14-11/4/14 #1040164. ***Temporary Augmentation of 1 3AC coach from 4/4/14-27/6/14 #1043381
Wed Apr 02, 2014 (11:27PM)
⇐ Return Journey: Train# 15648

15647/Mumbai LTT-Guwahati Weekly Express

Time-Table HAS CHANGED.
Yesterday (11:54PM)
Change Departure Station:
Change Arrival Station:
Post a Train Travel TipPost a Train Travel Tip **new
Post a Comment/Question/Picture/VideoPost a Comment/Question/Picture/Video
Pantry/Catering
✓ Pantry Car Avbl
✓ Catering Avbl
RSA - Rake Sharing
Rake/Coach Composition
2A-1; 3A-3; SL-12; GEN-3; PC-1; SLR-2 :: 22 COACH
Loco
ET-GHY =>ET WDMx
News    PNR    Forum    Time-Table    Availability    Fare Chart    Map    Arr/Dep History    Trips    Gallery    ΣChains    X/O    Timeline    
Travel Time: 31h 5m    37 halts    Distance: 1402 km    Avg Speed: 45 km/hr
Type: Mail/Express
Zone: NFR/Northeast Frontier
Departs @ 05:55
Platform# ???
      S
Chheoki Junction/COI 
Arrives @ 13:00 +1 night
Platform# ???
S      
Guwahati/GHY 

37 halts. 258 intermediate Stations between Chheoki Junction and Guwahati

Show ALL intermediate Stations  Show Old Time-Table

#CodeStation NameX/OArrivesAvgDepartsAvgHaltPFDay#KmSpeedElevZoneAddress
1LTTMumbai Lokmanya Tilak Terminus (5)  -08:05-51-1337.1697mCRMumbai - 400089, Maharashtra
2KYNKalyan Junction (8)  08:35 08:37-08:40-5 3m41-1300.44510mCRKalyan 421301, Maharashtra
3IGPIgatpuri (4)10:35 10:28-10:40 10:30-5 2m21-1218.671589mCRIgatpuri 422403, Maharashtra
4DVLDevlali (3)X  11:08-11:10-2m11-1173.719561mCRDist. Nashik 422401, Maharashtra
5NKNasik Road (3)  11:28-11:30-2m11-1167.997563mCRNashik 422101, Maharashtra
6MMRManmad Junction (6)  12:25 12:15-12:30 12:20-5m11-1095.285580mCRManmad 423104, Maharashtra
7BSLBhusaval Junction (8)X  14:45 14:30-14:55 14:40-10m--1-911.076208mCRBhusaval 425201, Maharashtra
8BAUBurhanpur (2)  15:38 15:23-15:40 15:25-2m21-856.534269mCRBurhanpur, Madhya Pradesh
9KNWKhandwa Junction (5)  17:35 17:25-17:40 17:30-5m--1-787.695310mCRKhandwa, Madhya Pradesh
10HDHarda (3)O  18:38-18:40-2m--1-680.057289mWCRHarda, Madhya Pradesh
11ETItarsi Junction (7)X20:00-20:10-10m--1-604.272329mWCRItarsi 461111, Madhya Pradesh
12PPIPipariya (3)  21:06-21:08-2m--1-536.981338mWCRPiparia, Madhya Pradesh
13JBPJabalpur Junction (4)X  23:20-23:30-10m41-359.278416mWCRJabalpur, Madhya Pradesh
14KTEKatni Junction (6)X  00:40-00:45-5m--2-268.374387mWCRKatni, Madhya Pradesh
15STASatna Junction (3)XO  02:10 02:05-02:20 02:15-10m--2-170.047322mWCRSatna, Madhya Pradesh
16COI»Chheoki Junction (3)»  06:05 05:53-06:10 05:55-5 2m--20.07796mNCRDist.-Allahabad, Uttar Pradesh
17MZPMirzapur (3)X  07:10 06:58-07:15 07:00-5 2m--280.43388mNCRMirzapur, Uttar Pradesh
18MGSMughal Sarai Junction (8)  08:55-09:10-15m--2143.67583mECRMughalsarai 232101, Uttar Pradesh
19DLNDildarnagar Junction (2)  09:56-09:58-2m--2201.38072mECRDildarnagar, Uttar Pradesh
20BXRBuxar (3)  10:25-10:27-2m--2237.58967mECRBuxar, Bihar
21DUREDumraon (3)X  10:38-10:40-2m--2253.98970mECRDumraon, Bihar
22ARAAra Junction (3)  11:19 11:15-11:21 11:17-2m--2306.07963mECRarrah( 06182-233411), Bihar
23DNRDanapur (5)X  11:47-11:57-10m--2345.61158mECRKhagaul, Bihar
24PNBEPatna Junction (10)X  12:50-13:00-10m82355.03557mECRPatna 800001, Bihar
25PNCPatna Saheb (3)  13:17-13:19-2m--2364.84359mECRPatna, Bihar
26FUTFatwa (6)  13:36-13:38-2m--2377.16353mECRPatna, Bihar
27KOOKhusropur (2)  13:46-13:48-2m--2385.56252mECRPatna, Bihar
28BKPBakhtiyarpur Junction (5)  14:02-14:04-2m--2400.16151mECRPatna, Bihar
29BARHBarh (3)  14:22-14:24-2m--2418.34349mECRBarh, Bihar
30MKAMokama Junction (4)X  15:00-15:05-5m--2444.25648mECRPatna, Bihar
31HTZHathidah Junction (2)  15:14-15:16-2m12452.66350mECRMusahari, Bihar
32BRYABarhiya (3)  15:25-15:27-2m--2462.03547mECRBarahiya, Bihar
33LKRLuckeesarai Junction (2)  15:53-15:55-2m--2477.1852mECRLakhisarai, Bihar
34KIULKiul Junction (5)X  16:05-16:12-7m--2478.45153mECRDist. Lakhisarai, Bihar
35AHAAbhaipur (2)  16:39-16:41-2m--2501.44252mERAbhaipur, Bihar
36JMPJamalpur Junction (4)X  17:12-17:27-15m--2523.36159mERJamalpur 06344-243101, Bihar
37BUPBariarpur (3)  17:38-17:40-2m--2534.45442mERMunger, Bihar
38SGGSultanGanj (3)  18:00-18:02-2m--2552.34542mERSultanganj, Bihar
39BGPBhagalpur Junction (6)  18:35-18:50-15m--2577.36949mERBhagalpur, Bihar
40CLGKahalgaon (2)X  19:16-19:18-2m12607.43944mERBhagalpur, Bihar
41SBGSahibganj Junction (3)  20:25-20:35-10m12651.24538mERSahibganj, Jharkhand
42BHWBarharwa Junction (3)  21:48-21:50-2m22705.74036mERBarharwa, Jharkhand
43NFKNew Farakka Junction (3)  22:17-22:19-2m22723.73532mERDist - Murshidabad, West Bengal
44MLDTMalda Town (5)X  23:20-23:35-15m--2758.87430mERDist - Malda, West Bengal
45KNEKishanGanj (3)  01:35-01:40-5m--3906.95052mNFRKishanganj, Bihar
46NJPNew Jalpaiguri Junction (8)X  03:25-03:40-15m--3994.252114mNFRCity-Siliguri . Dist-Jalpaiguri, West Bengal
47DQGDhupguri (2)  05:00 04:55-05:05 05:00-5m--31059.66075mNFRDist - Jalpaiguri, West Bengal
48NCBNew Cooch Behar Junction (5)  06:05 06:00-06:10 06:05-5m--31119.75647mNFRDist : Cooch Behar-736101, West Bengal
49NOQNew Alipurduar (2)  06:35 06:25-06:40 06:30-5m--31138.44948mNFRDist - Alipurduar - 736121, West Bengal
50NBQNew Bongaigaon Junction (4)  08:40-08:50-10m--31245.14458mNFR783381., Assam
51BPRDBarpeta Road  09:52 09:50-09:57 09:52-5 2m--31289.24749mNFRHowli, Assam
52RNYRangiya Junction (5)  11:15-11:25-10m--31354.03658mNFRRangia, Assam
53KYQKamakhya Junction (4)  12:30 12:33-12:35-5 2m--31394.71755mNFRDist - KAMRUP, Assam
54GHY•Guwahati (7)•  13:00----31401.7-60mNFRGuwahati, Assam
Scroll to Top
Scroll to Bottom